sensor_id;sensor_type;location;lat;lon;timestamp;P1;durP1;ratioP1;P2;durP2;ratioP2
4521;SDS011;2273;48.464;11.926;2022-08-11T00:02:47;7.20;;;4.53;;
4521;SDS011;2273;48.464;11.926;2022-08-11T00:05:16;13.40;;;4.50;;
4521;SDS011;2273;48.464;11.926;2022-08-11T00:07:45;5.80;;;4.40;;
4521;SDS011;2273;48.464;11.926;2022-08-11T00:10:16;6.60;;;5.10;;
4521;SDS011;2273;48.464;11.926;2022-08-11T00:12:43;11.30;;;4.60;;
4521;SDS011;2273;48.464;11.926;2022-08-11T00:15:15;6.50;;;4.50;;
4521;SDS011;2273;48.464;11.926;2022-08-11T00:17:41;5.63;;;4.57;;
4521;SDS011;2273;48.464;11.926;2022-08-11T00:20:08;5.40;;;4.50;;
4521;SDS011;2273;48.464;11.926;2022-08-11T00:22:37;5.97;;;4.53;;
4521;SDS011;2273;48.464;11.926;2022-08-11T00:25:10;7.13;;;4.30;;
4521;SDS011;2273;48.464;11.926;2022-08-11T00:27:39;7.37;;;4.90;;
4521;SDS011;2273;48.464;11.926;2022-08-11T00:30:08;6.87;;;4.73;;
4521;SDS011;2273;48.464;11.926;2022-08-11T00:32:40;8.23;;;4.90;;
4521;SDS011;2273;48.464;11.926;2022-08-11T00:35:10;6.10;;;4.77;;
4521;SDS011;2273;48.464;11.926;2022-08-11T00:37:38;6.83;;;4.73;;
4521;SDS011;2273;48.464;11.926;2022-08-11T00:40:06;6.57;;;4.50;;
4521;SDS011;2273;48.464;11.926;2022-08-11T00:45:41;10.50;;;4.83;;
4521;SDS011;2273;48.464;11.926;2022-08-11T00:48:23;5.70;;;4.43;;
4521;SDS011;2273;48.464;11.926;2022-08-11T00:54:04;5.63;;;4.93;;
4521;SDS011;2273;48.464;11.926;2022-08-11T00:59:07;8.10;;;4.73;;
4521;SDS011;2273;48.464;11.926;2022-08-11T01:12:23;9.27;;;4.53;;
4521;SDS011;2273;48.464;11.926;2022-08-11T01:17:41;9.50;;;5.03;;
4521;SDS011;2273;48.464;11.926;2022-08-11T01:23:35;7.90;;;4.60;;
4521;SDS011;2273;48.464;11.926;2022-08-11T01:29:23;8.60;;;4.60;;
4521;SDS011;2273;48.464;11.926;2022-08-11T01:46:33;6.07;;;4.63;;
4521;SDS011;2273;48.464;11.926;2022-08-11T01:52:14;7.63;;;5.40;;
4521;SDS011;2273;48.464;11.926;2022-08-11T02:00:14;6.03;;;4.70;;
4521;SDS011;2273;48.464;11.926;2022-08-11T02:05:53;7.57;;;5.23;;
4521;SDS011;2273;48.464;11.926;2022-08-11T02:19:54;7.23;;;4.93;;
4521;SDS011;2273;48.464;11.926;2022-08-11T02:34:22;10.70;;;5.50;;
4521;SDS011;2273;48.464;11.926;2022-08-11T02:36:58;6.47;;;5.33;;
4521;SDS011;2273;48.464;11.926;2022-08-11T02:39:30;9.10;;;5.37;;
4521;SDS011;2273;48.464;11.926;2022-08-11T02:42:19;11.50;;;4.70;;
4521;SDS011;2273;48.464;11.926;2022-08-11T02:50:43;11.10;;;5.17;;
4521;SDS011;2273;48.464;11.926;2022-08-11T03:02:01;7.73;;;5.20;;
4521;SDS011;2273;48.464;11.926;2022-08-11T03:12:43;12.73;;;6.00;;
4521;SDS011;2273;48.464;11.926;2022-08-11T03:15:51;6.77;;;5.27;;
4521;SDS011;2273;48.464;11.926;2022-08-11T03:19:10;16.20;;;5.23;;
4521;SDS011;2273;48.464;11.926;2022-08-11T03:24:55;13.30;;;5.87;;
4521;SDS011;2273;48.464;11.926;2022-08-11T03:27:32;9.40;;;5.67;;
4521;SDS011;2273;48.464;11.926;2022-08-11T03:32:37;8.93;;;5.40;;
4521;SDS011;2273;48.464;11.926;2022-08-11T03:35:30;7.03;;;5.50;;
4521;SDS011;2273;48.464;11.926;2022-08-11T03:38:01;8.50;;;6.03;;
4521;SDS011;2273;48.464;11.926;2022-08-11T03:40:31;7.37;;;5.83;;
4521;SDS011;2273;48.464;11.926;2022-08-11T03:43:33;11.20;;;5.80;;
4521;SDS011;2273;48.464;11.926;2022-08-11T03:46:07;13.13;;;6.57;;
4521;SDS011;2273;48.464;11.926;2022-08-11T03:48:53;6.50;;;5.27;;
4521;SDS011;2273;48.464;11.926;2022-08-11T03:51:30;9.17;;;5.90;;
4521;SDS011;2273;48.464;11.926;2022-08-11T04:14:24;10.20;;;5.70;;
4521;SDS011;2273;48.464;11.926;2022-08-11T04:20:35;8.23;;;5.90;;
4521;SDS011;2273;48.464;11.926;2022-08-11T04:35:21;11.00;;;5.77;;
4521;SDS011;2273;48.464;11.926;2022-08-11T04:48:46;6.20;;;5.60;;
4521;SDS011;2273;48.464;11.926;2022-08-11T04:58:12;9.20;;;5.87;;
4521;SDS011;2273;48.464;11.926;2022-08-11T05:01:19;7.20;;;6.17;;
4521;SDS011;2273;48.464;11.926;2022-08-11T05:12:35;11.73;;;6.07;;
4521;SDS011;2273;48.464;11.926;2022-08-11T05:15:02;8.50;;;5.67;;
4521;SDS011;2273;48.464;11.926;2022-08-11T05:20:51;7.70;;;5.80;;
4521;SDS011;2273;48.464;11.926;2022-08-11T05:23:41;12.03;;;6.17;;
4521;SDS011;2273;48.464;11.926;2022-08-11T05:26:27;7.53;;;6.20;;
4521;SDS011;2273;48.464;11.926;2022-08-11T05:32:19;7.30;;;5.30;;
4521;SDS011;2273;48.464;11.926;2022-08-11T05:35:03;7.20;;;5.47;;
4521;SDS011;2273;48.464;11.926;2022-08-11T05:37:40;8.23;;;6.10;;
4521;SDS011;2273;48.464;11.926;2022-08-11T05:40:07;8.23;;;5.33;;
4521;SDS011;2273;48.464;11.926;2022-08-11T05:43:00;6.20;;;5.13;;
4521;SDS011;2273;48.464;11.926;2022-08-11T05:45:54;8.53;;;6.57;;
4521;SDS011;2273;48.464;11.926;2022-08-11T05:48:40;8.00;;;5.67;;
4521;SDS011;2273;48.464;11.926;2022-08-11T05:51:31;8.83;;;5.40;;
4521;SDS011;2273;48.464;11.926;2022-08-11T05:54:20;8.93;;;5.47;;
4521;SDS011;2273;48.464;11.926;2022-08-11T05:57:05;10.17;;;5.93;;
4521;SDS011;2273;48.464;11.926;2022-08-11T05:59:31;10.40;;;5.53;;
4521;SDS011;2273;48.464;11.926;2022-08-11T06:02:01;8.30;;;5.37;;
4521;SDS011;2273;48.464;11.926;2022-08-11T06:04:27;8.57;;;5.40;;
4521;SDS011;2273;48.464;11.926;2022-08-11T06:06:58;6.63;;;5.40;;
4521;SDS011;2273;48.464;11.926;2022-08-11T06:09:26;8.70;;;6.10;;
4521;SDS011;2273;48.464;11.926;2022-08-11T06:11:55;11.83;;;6.30;;
4521;SDS011;2273;48.464;11.926;2022-08-11T06:14:22;9.80;;;5.60;;
4521;SDS011;2273;48.464;11.926;2022-08-11T06:16:48;8.37;;;5.60;;
4521;SDS011;2273;48.464;11.926;2022-08-11T06:19:15;6.27;;;5.20;;
4521;SDS011;2273;48.464;11.926;2022-08-11T06:21:45;8.83;;;5.70;;
4521;SDS011;2273;48.464;11.926;2022-08-11T06:24:14;13.53;;;5.30;;
4521;SDS011;2273;48.464;11.926;2022-08-11T06:26:40;16.10;;;5.47;;
4521;SDS011;2273;48.464;11.926;2022-08-11T06:29:12;8.20;;;5.00;;
4521;SDS011;2273;48.464;11.926;2022-08-11T06:31:49;7.90;;;5.50;;
4521;SDS011;2273;48.464;11.926;2022-08-11T06:34:31;8.73;;;5.40;;
4521;SDS011;2273;48.464;11.926;2022-08-11T06:37:20;10.30;;;5.23;;
4521;SDS011;2273;48.464;11.926;2022-08-11T06:40:02;10.17;;;4.90;;
4521;SDS011;2273;48.464;11.926;2022-08-11T06:48:15;8.33;;;4.87;;
4521;SDS011;2273;48.464;11.926;2022-08-11T06:50:47;18.00;;;5.00;;
4521;SDS011;2273;48.464;11.926;2022-08-11T06:53:32;7.20;;;4.87;;
4521;SDS011;2273;48.464;11.926;2022-08-11T06:55:58;13.87;;;5.23;;
4521;SDS011;2273;48.464;11.926;2022-08-11T06:58:46;5.70;;;4.53;;
4521;SDS011;2273;48.464;11.926;2022-08-11T07:01:43;6.97;;;4.83;;
4521;SDS011;2273;48.464;11.926;2022-08-11T07:13:22;10.63;;;5.17;;
4521;SDS011;2273;48.464;11.926;2022-08-11T07:16:07;9.33;;;4.83;;
4521;SDS011;2273;48.464;11.926;2022-08-11T07:18:33;7.13;;;3.90;;
4521;SDS011;2273;48.464;11.926;2022-08-11T07:21:24;5.80;;;4.57;;
4521;SDS011;2273;48.464;11.926;2022-08-11T07:24:12;13.43;;;4.70;;
4521;SDS011;2273;48.464;11.926;2022-08-11T07:26:58;6.60;;;4.30;;
4521;SDS011;2273;48.464;11.926;2022-08-11T07:29:44;7.80;;;4.17;;
4521;SDS011;2273;48.464;11.926;2022-08-11T07:32:29;7.00;;;4.33;;
4521;SDS011;2273;48.464;11.926;2022-08-11T07:37:32;8.10;;;3.90;;
4521;SDS011;2273;48.464;11.926;2022-08-11T07:39:58;11.20;;;4.07;;
4521;SDS011;2273;48.464;11.926;2022-08-11T07:42:27;9.07;;;4.20;;
4521;SDS011;2273;48.464;11.926;2022-08-11T07:44:55;4.43;;;3.80;;
4521;SDS011;2273;48.464;11.926;2022-08-11T07:47:39;6.67;;;4.17;;
4521;SDS011;2273;48.464;11.926;2022-08-11T07:50:24;7.40;;;3.83;;
4521;SDS011;2273;48.464;11.926;2022-08-11T07:53:08;4.00;;;3.60;;
4521;SDS011;2273;48.464;11.926;2022-08-11T07:55:34;7.27;;;4.50;;
4521;SDS011;2273;48.464;11.926;2022-08-11T07:58:00;8.80;;;3.70;;
4521;SDS011;2273;48.464;11.926;2022-08-11T08:00:45;6.17;;;4.10;;
4521;SDS011;2273;48.464;11.926;2022-08-11T08:03:33;6.90;;;4.00;;
4521;SDS011;2273;48.464;11.926;2022-08-11T08:06:17;7.80;;;3.93;;
4521;SDS011;2273;48.464;11.926;2022-08-11T08:09:02;5.67;;;4.00;;
4521;SDS011;2273;48.464;11.926;2022-08-11T08:11:46;6.53;;;4.00;;
4521;SDS011;2273;48.464;11.926;2022-08-11T08:14:30;8.33;;;3.53;;
4521;SDS011;2273;48.464;11.926;2022-08-11T08:17:15;4.73;;;3.67;;
4521;SDS011;2273;48.464;11.926;2022-08-11T08:19:59;5.93;;;3.90;;
4521;SDS011;2273;48.464;11.926;2022-08-11T08:22:25;5.83;;;3.50;;
4521;SDS011;2273;48.464;11.926;2022-08-11T08:24:51;6.80;;;4.00;;
4521;SDS011;2273;48.464;11.926;2022-08-11T08:27:18;8.40;;;3.30;;
4521;SDS011;2273;48.464;11.926;2022-08-11T08:29:44;9.97;;;3.50;;
4521;SDS011;2273;48.464;11.926;2022-08-11T08:32:28;5.90;;;3.80;;
4521;SDS011;2273;48.464;11.926;2022-08-11T08:34:55;7.00;;;3.47;;
4521;SDS011;2273;48.464;11.926;2022-08-11T08:37:23;4.27;;;3.77;;
4521;SDS011;2273;48.464;11.926;2022-08-11T08:39:49;4.87;;;3.50;;
4521;SDS011;2273;48.464;11.926;2022-08-11T08:42:37;17.00;;;3.47;;
4521;SDS011;2273;48.464;11.926;2022-08-11T08:45:07;3.77;;;3.00;;
4521;SDS011;2273;48.464;11.926;2022-08-11T08:47:35;3.77;;;3.30;;
4521;SDS011;2273;48.464;11.926;2022-08-11T08:50:04;6.50;;;3.40;;
4521;SDS011;2273;48.464;11.926;2022-08-11T08:52:36;5.70;;;3.23;;
4521;SDS011;2273;48.464;11.926;2022-08-11T08:55:04;3.50;;;3.00;;
4521;SDS011;2273;48.464;11.926;2022-08-11T08:57:35;5.40;;;3.70;;
4521;SDS011;2273;48.464;11.926;2022-08-11T09:00:02;5.60;;;2.90;;
4521;SDS011;2273;48.464;11.926;2022-08-11T09:02:29;4.73;;;3.53;;
4521;SDS011;2273;48.464;11.926;2022-08-11T09:04:54;4.33;;;3.30;;
4521;SDS011;2273;48.464;11.926;2022-08-11T09:07:21;4.27;;;3.30;;
4521;SDS011;2273;48.464;11.926;2022-08-11T09:09:51;6.30;;;2.90;;
4521;SDS011;2273;48.464;11.926;2022-08-11T09:12:18;7.00;;;3.40;;
4521;SDS011;2273;48.464;11.926;2022-08-11T09:14:48;5.73;;;2.97;;
4521;SDS011;2273;48.464;11.926;2022-08-11T09:17:31;4.13;;;3.43;;
4521;SDS011;2273;48.464;11.926;2022-08-11T09:20:23;7.33;;;3.40;;
4521;SDS011;2273;48.464;11.926;2022-08-11T09:22:53;9.60;;;3.00;;
4521;SDS011;2273;48.464;11.926;2022-08-11T09:25:39;6.13;;;3.10;;
4521;SDS011;2273;48.464;11.926;2022-08-11T09:28:23;5.40;;;3.20;;
4521;SDS011;2273;48.464;11.926;2022-08-11T09:30:53;4.63;;;3.53;;
4521;SDS011;2273;48.464;11.926;2022-08-11T09:33:20;6.50;;;3.00;;
4521;SDS011;2273;48.464;11.926;2022-08-11T09:35:47;7.57;;;3.37;;
4521;SDS011;2273;48.464;11.926;2022-08-11T09:38:16;11.13;;;3.50;;
4521;SDS011;2273;48.464;11.926;2022-08-11T09:41:01;4.13;;;3.00;;
4521;SDS011;2273;48.464;11.926;2022-08-11T09:43:29;13.83;;;3.37;;
4521;SDS011;2273;48.464;11.926;2022-08-11T09:46:16;6.33;;;3.20;;
4521;SDS011;2273;48.464;11.926;2022-08-11T09:48:55;7.23;;;3.40;;
4521;SDS011;2273;48.464;11.926;2022-08-11T09:51:23;4.67;;;2.90;;
4521;SDS011;2273;48.464;11.926;2022-08-11T09:53:49;3.70;;;2.80;;
4521;SDS011;2273;48.464;11.926;2022-08-11T09:56:15;6.00;;;3.33;;
4521;SDS011;2273;48.464;11.926;2022-08-11T09:59:02;3.80;;;3.20;;
4521;SDS011;2273;48.464;11.926;2022-08-11T10:01:29;6.20;;;3.73;;
4521;SDS011;2273;48.464;11.926;2022-08-11T10:04:00;9.53;;;3.10;;
4521;SDS011;2273;48.464;11.926;2022-08-11T10:06:28;3.57;;;2.80;;
4521;SDS011;2273;48.464;11.926;2022-08-11T10:09:17;5.37;;;2.90;;
4521;SDS011;2273;48.464;11.926;2022-08-11T10:11:45;4.83;;;2.70;;
4521;SDS011;2273;48.464;11.926;2022-08-11T10:14:11;6.43;;;2.97;;
4521;SDS011;2273;48.464;11.926;2022-08-11T10:16:56;5.03;;;2.87;;
4521;SDS011;2273;48.464;11.926;2022-08-11T10:19:22;5.73;;;3.30;;
4521;SDS011;2273;48.464;11.926;2022-08-11T10:21:51;5.27;;;2.87;;
4521;SDS011;2273;48.464;11.926;2022-08-11T10:24:36;3.80;;;2.73;;
4521;SDS011;2273;48.464;11.926;2022-08-11T10:27:21;7.80;;;3.40;;
4521;SDS011;2273;48.464;11.926;2022-08-11T10:29:47;7.00;;;3.50;;
4521;SDS011;2273;48.464;11.926;2022-08-11T10:32:46;5.23;;;3.10;;
4521;SDS011;2273;48.464;11.926;2022-08-11T10:35:33;7.27;;;2.40;;
4521;SDS011;2273;48.464;11.926;2022-08-11T10:37:58;4.90;;;2.90;;
4521;SDS011;2273;48.464;11.926;2022-08-11T10:40:24;5.10;;;2.70;;
4521;SDS011;2273;48.464;11.926;2022-08-11T10:42:53;4.00;;;2.40;;
4521;SDS011;2273;48.464;11.926;2022-08-11T10:45:32;2.80;;;2.50;;
4521;SDS011;2273;48.464;11.926;2022-08-11T10:48:21;6.20;;;2.87;;
4521;SDS011;2273;48.464;11.926;2022-08-11T10:50:48;4.73;;;2.77;;
4521;SDS011;2273;48.464;11.926;2022-08-11T10:53:34;4.30;;;2.73;;
4521;SDS011;2273;48.464;11.926;2022-08-11T10:56:19;13.10;;;2.70;;
4521;SDS011;2273;48.464;11.926;2022-08-11T10:59:05;5.80;;;2.90;;
4521;SDS011;2273;48.464;11.926;2022-08-11T11:01:33;7.10;;;3.13;;
4521;SDS011;2273;48.464;11.926;2022-08-11T11:04:05;10.43;;;2.90;;
4521;SDS011;2273;48.464;11.926;2022-08-11T11:09:29;4.13;;;3.10;;
4521;SDS011;2273;48.464;11.926;2022-08-11T11:12:02;3.57;;;2.70;;
4521;SDS011;2273;48.464;11.926;2022-08-11T11:14:50;7.40;;;2.50;;
4521;SDS011;2273;48.464;11.926;2022-08-11T11:17:36;13.17;;;2.50;;
4521;SDS011;2273;48.464;11.926;2022-08-11T11:20:32;2.80;;;2.30;;
4521;SDS011;2273;48.464;11.926;2022-08-11T11:23:01;12.00;;;2.70;;
4521;SDS011;2273;48.464;11.926;2022-08-11T11:25:54;3.63;;;2.50;;
4521;SDS011;2273;48.464;11.926;2022-08-11T11:39:19;3.47;;;2.50;;
4521;SDS011;2273;48.464;11.926;2022-08-11T11:41:46;4.77;;;2.40;;
4521;SDS011;2273;48.464;11.926;2022-08-11T11:44:13;3.30;;;2.60;;
4521;SDS011;2273;48.464;11.926;2022-08-11T11:46:39;5.03;;;2.63;;
4521;SDS011;2273;48.464;11.926;2022-08-11T11:49:05;6.07;;;2.27;;
4521;SDS011;2273;48.464;11.926;2022-08-11T11:51:33;15.93;;;2.13;;
4521;SDS011;2273;48.464;11.926;2022-08-11T11:54:00;4.40;;;2.07;;
4521;SDS011;2273;48.464;11.926;2022-08-11T11:56:27;2.50;;;2.10;;
4521;SDS011;2273;48.464;11.926;2022-08-11T11:58:53;3.47;;;2.20;;
4521;SDS011;2273;48.464;11.926;2022-08-11T12:01:38;2.23;;;2.03;;
4521;SDS011;2273;48.464;11.926;2022-08-11T12:04:04;5.23;;;2.30;;
4521;SDS011;2273;48.464;11.926;2022-08-11T12:06:30;3.30;;;2.00;;
4521;SDS011;2273;48.464;11.926;2022-08-11T12:08:57;3.80;;;1.90;;
4521;SDS011;2273;48.464;11.926;2022-08-11T12:11:23;3.77;;;2.07;;
4521;SDS011;2273;48.464;11.926;2022-08-11T12:14:10;5.13;;;2.03;;
4521;SDS011;2273;48.464;11.926;2022-08-11T12:16:38;2.80;;;2.17;;
4521;SDS011;2273;48.464;11.926;2022-08-11T12:19:06;2.10;;;1.87;;
4521;SDS011;2273;48.464;11.926;2022-08-11T12:21:35;8.90;;;2.00;;
4521;SDS011;2273;48.464;11.926;2022-08-11T12:24:02;3.43;;;2.33;;
4521;SDS011;2273;48.464;11.926;2022-08-11T12:26:47;2.53;;;2.20;;
4521;SDS011;2273;48.464;11.926;2022-08-11T12:29:19;2.77;;;1.90;;
4521;SDS011;2273;48.464;11.926;2022-08-11T12:31:46;6.77;;;2.23;;
4521;SDS011;2273;48.464;11.926;2022-08-11T12:34:13;9.03;;;2.10;;
4521;SDS011;2273;48.464;11.926;2022-08-11T12:39:09;2.83;;;1.87;;
4521;SDS011;2273;48.464;11.926;2022-08-11T12:41:37;2.80;;;2.03;;
4521;SDS011;2273;48.464;11.926;2022-08-11T12:44:26;7.70;;;2.40;;
4521;SDS011;2273;48.464;11.926;2022-08-11T12:47:11;2.13;;;1.90;;
4521;SDS011;2273;48.464;11.926;2022-08-11T12:49:41;2.13;;;1.97;;
4521;SDS011;2273;48.464;11.926;2022-08-11T12:52:28;1.90;;;1.80;;
4521;SDS011;2273;48.464;11.926;2022-08-11T12:57:38;2.00;;;1.80;;
4521;SDS011;2273;48.464;11.926;2022-08-11T13:00:24;2.43;;;2.23;;
4521;SDS011;2273;48.464;11.926;2022-08-11T13:03:10;8.50;;;1.87;;
4521;SDS011;2273;48.464;11.926;2022-08-11T13:05:57;4.40;;;1.97;;
4521;SDS011;2273;48.464;11.926;2022-08-11T13:08:26;3.13;;;1.70;;
4521;SDS011;2273;48.464;11.926;2022-08-11T13:10:54;2.87;;;1.80;;
4521;SDS011;2273;48.464;11.926;2022-08-11T13:13:40;4.00;;;2.00;;
4521;SDS011;2273;48.464;11.926;2022-08-11T13:16:09;1.83;;;1.73;;
4521;SDS011;2273;48.464;11.926;2022-08-11T13:18:34;1.77;;;1.67;;
4521;SDS011;2273;48.464;11.926;2022-08-11T13:21:01;6.07;;;1.80;;
4521;SDS011;2273;48.464;11.926;2022-08-11T13:23:27;5.57;;;1.80;;
4521;SDS011;2273;48.464;11.926;2022-08-11T13:25:53;2.23;;;2.03;;
4521;SDS011;2273;48.464;11.926;2022-08-11T13:28:20;3.67;;;1.93;;
4521;SDS011;2273;48.464;11.926;2022-08-11T13:30:49;4.40;;;1.73;;
4521;SDS011;2273;48.464;11.926;2022-08-11T13:33:40;4.43;;;1.77;;
4521;SDS011;2273;48.464;11.926;2022-08-11T13:36:07;2.97;;;1.90;;
4521;SDS011;2273;48.464;11.926;2022-08-11T13:38:33;7.03;;;1.90;;
4521;SDS011;2273;48.464;11.926;2022-08-11T13:40:59;6.50;;;1.97;;
4521;SDS011;2273;48.464;11.926;2022-08-11T13:43:25;2.50;;;1.77;;
4521;SDS011;2273;48.464;11.926;2022-08-11T13:45:51;2.60;;;1.50;;
4521;SDS011;2273;48.464;11.926;2022-08-11T13:48:36;1.97;;;1.80;;
4521;SDS011;2273;48.464;11.926;2022-08-11T13:51:02;4.93;;;1.50;;
4521;SDS011;2273;48.464;11.926;2022-08-11T13:53:46;1.60;;;1.50;;
4521;SDS011;2273;48.464;11.926;2022-08-11T13:56:12;4.83;;;1.57;;
4521;SDS011;2273;48.464;11.926;2022-08-11T13:58:38;3.53;;;1.60;;
4521;SDS011;2273;48.464;11.926;2022-08-11T14:01:03;3.63;;;1.63;;
4521;SDS011;2273;48.464;11.926;2022-08-11T14:03:30;2.07;;;1.60;;
4521;SDS011;2273;48.464;11.926;2022-08-11T14:05:57;3.80;;;1.70;;
4521;SDS011;2273;48.464;11.926;2022-08-11T14:08:25;3.50;;;2.00;;
4521;SDS011;2273;48.464;11.926;2022-08-11T14:10:52;6.43;;;1.50;;
4521;SDS011;2273;48.464;11.926;2022-08-11T14:13:39;4.50;;;1.73;;
4521;SDS011;2273;48.464;11.926;2022-08-11T14:16:07;2.97;;;2.20;;
4521;SDS011;2273;48.464;11.926;2022-08-11T14:18:45;5.57;;;1.70;;
4521;SDS011;2273;48.464;11.926;2022-08-11T14:21:13;2.53;;;1.50;;
4521;SDS011;2273;48.464;11.926;2022-08-11T14:23:58;2.13;;;1.67;;
4521;SDS011;2273;48.464;11.926;2022-08-11T14:26:25;4.70;;;1.67;;
4521;SDS011;2273;48.464;11.926;2022-08-11T14:31:51;1.77;;;1.60;;
4521;SDS011;2273;48.464;11.926;2022-08-11T14:34:18;2.20;;;1.80;;
4521;SDS011;2273;48.464;11.926;2022-08-11T14:36:47;4.10;;;1.73;;
4521;SDS011;2273;48.464;11.926;2022-08-11T14:39:21;1.90;;;1.70;;
4521;SDS011;2273;48.464;11.926;2022-08-11T14:41:49;5.70;;;1.90;;
4521;SDS011;2273;48.464;11.926;2022-08-11T14:44:42;2.87;;;1.70;;
4521;SDS011;2273;48.464;11.926;2022-08-11T14:47:36;3.60;;;1.50;;
4521;SDS011;2273;48.464;11.926;2022-08-11T14:50:03;2.90;;;1.77;;
4521;SDS011;2273;48.464;11.926;2022-08-11T14:52:30;2.83;;;1.80;;
4521;SDS011;2273;48.464;11.926;2022-08-11T14:54:59;2.70;;;1.70;;
4521;SDS011;2273;48.464;11.926;2022-08-11T14:57:44;2.63;;;1.83;;
4521;SDS011;2273;48.464;11.926;2022-08-11T15:00:12;1.80;;;1.70;;
4521;SDS011;2273;48.464;11.926;2022-08-11T15:02:39;3.53;;;1.63;;
4521;SDS011;2273;48.464;11.926;2022-08-11T15:05:24;4.20;;;1.83;;
4521;SDS011;2273;48.464;11.926;2022-08-11T15:07:51;2.07;;;1.60;;
4521;SDS011;2273;48.464;11.926;2022-08-11T15:10:18;2.33;;;1.80;;
4521;SDS011;2273;48.464;11.926;2022-08-11T15:12:43;2.90;;;1.80;;
4521;SDS011;2273;48.464;11.926;2022-08-11T15:15:09;15.83;;;2.17;;
4521;SDS011;2273;48.464;11.926;2022-08-11T15:17:56;9.03;;;1.93;;
4521;SDS011;2273;48.464;11.926;2022-08-11T15:20:24;3.13;;;1.90;;
4521;SDS011;2273;48.464;11.926;2022-08-11T15:23:08;4.67;;;1.93;;
4521;SDS011;2273;48.464;11.926;2022-08-11T15:25:55;3.50;;;1.50;;
4521;SDS011;2273;48.464;11.926;2022-08-11T15:28:22;3.53;;;1.70;;
4521;SDS011;2273;48.464;11.926;2022-08-11T15:31:07;3.10;;;2.00;;
4521;SDS011;2273;48.464;11.926;2022-08-11T15:33:53;1.93;;;1.70;;
4521;SDS011;2273;48.464;11.926;2022-08-11T15:36:39;6.70;;;1.60;;
4521;SDS011;2273;48.464;11.926;2022-08-11T15:39:30;3.00;;;1.90;;
4521;SDS011;2273;48.464;11.926;2022-08-11T15:42:08;6.77;;;1.90;;
4521;SDS011;2273;48.464;11.926;2022-08-11T15:44:59;3.60;;;1.73;;
4521;SDS011;2273;48.464;11.926;2022-08-11T15:47:55;3.00;;;1.73;;
4521;SDS011;2273;48.464;11.926;2022-08-11T15:50:25;3.63;;;1.93;;
4521;SDS011;2273;48.464;11.926;2022-08-11T15:52:58;3.60;;;1.97;;
4521;SDS011;2273;48.464;11.926;2022-08-11T15:55:26;2.67;;;1.73;;
4521;SDS011;2273;48.464;11.926;2022-08-11T15:57:54;2.70;;;1.87;;
4521;SDS011;2273;48.464;11.926;2022-08-11T16:00:40;1.90;;;1.60;;
4521;SDS011;2273;48.464;11.926;2022-08-11T16:03:24;4.10;;;1.93;;
4521;SDS011;2273;48.464;11.926;2022-08-11T16:06:10;2.13;;;1.73;;
4521;SDS011;2273;48.464;11.926;2022-08-11T16:08:38;1.70;;;1.60;;
4521;SDS011;2273;48.464;11.926;2022-08-11T16:11:04;3.47;;;1.70;;
4521;SDS011;2273;48.464;11.926;2022-08-11T16:13:32;3.10;;;1.50;;
4521;SDS011;2273;48.464;11.926;2022-08-11T16:15:59;2.63;;;1.73;;
4521;SDS011;2273;48.464;11.926;2022-08-11T16:21:14;2.40;;;1.70;;
4521;SDS011;2273;48.464;11.926;2022-08-11T16:23:42;2.73;;;1.50;;
4521;SDS011;2273;48.464;11.926;2022-08-11T16:26:10;1.60;;;1.50;;
4521;SDS011;2273;48.464;11.926;2022-08-11T16:28:37;5.80;;;2.10;;
4521;SDS011;2273;48.464;11.926;2022-08-11T16:31:04;1.50;;;1.40;;
4521;SDS011;2273;48.464;11.926;2022-08-11T16:33:35;4.13;;;1.70;;
4521;SDS011;2273;48.464;11.926;2022-08-11T16:36:05;4.60;;;1.80;;
4521;SDS011;2273;48.464;11.926;2022-08-11T16:38:51;1.90;;;1.70;;
4521;SDS011;2273;48.464;11.926;2022-08-11T16:41:18;3.47;;;1.67;;
4521;SDS011;2273;48.464;11.926;2022-08-11T16:44:06;1.60;;;1.27;;
4521;SDS011;2273;48.464;11.926;2022-08-11T16:46:51;3.27;;;1.53;;
4521;SDS011;2273;48.464;11.926;2022-08-11T16:49:28;6.40;;;1.40;;
4521;SDS011;2273;48.464;11.926;2022-08-11T16:51:55;2.00;;;1.57;;
4521;SDS011;2273;48.464;11.926;2022-08-11T16:54:21;1.50;;;1.40;;
4521;SDS011;2273;48.464;11.926;2022-08-11T16:56:50;1.57;;;1.47;;
4521;SDS011;2273;48.464;11.926;2022-08-11T16:59:28;2.70;;;1.83;;
4521;SDS011;2273;48.464;11.926;2022-08-11T17:02:08;2.20;;;1.60;;
4521;SDS011;2273;48.464;11.926;2022-08-11T17:04:37;2.20;;;1.70;;
4521;SDS011;2273;48.464;11.926;2022-08-11T17:07:24;3.53;;;1.97;;
4521;SDS011;2273;48.464;11.926;2022-08-11T17:10:16;2.17;;;1.90;;
4521;SDS011;2273;48.464;11.926;2022-08-11T17:13:01;1.77;;;1.63;;
4521;SDS011;2273;48.464;11.926;2022-08-11T17:15:34;1.90;;;1.70;;
4521;SDS011;2273;48.464;11.926;2022-08-11T17:21:29;3.07;;;1.57;;
4521;SDS011;2273;48.464;11.926;2022-08-11T17:24:07;2.17;;;1.90;;
4521;SDS011;2273;48.464;11.926;2022-08-11T17:26:38;4.10;;;1.90;;
4521;SDS011;2273;48.464;11.926;2022-08-11T17:29:37;2.03;;;1.93;;
4521;SDS011;2273;48.464;11.926;2022-08-11T17:32:27;2.50;;;1.80;;
4521;SDS011;2273;48.464;11.926;2022-08-11T17:35:11;10.00;;;2.10;;
4521;SDS011;2273;48.464;11.926;2022-08-11T17:38:03;7.10;;;2.20;;
4521;SDS011;2273;48.464;11.926;2022-08-11T17:40:33;2.03;;;1.70;;
4521;SDS011;2273;48.464;11.926;2022-08-11T17:43:01;2.20;;;2.00;;
4521;SDS011;2273;48.464;11.926;2022-08-11T17:45:45;2.63;;;1.80;;
4521;SDS011;2273;48.464;11.926;2022-08-11T17:48:49;2.50;;;2.00;;
4521;SDS011;2273;48.464;11.926;2022-08-11T17:51:17;2.27;;;1.87;;
4521;SDS011;2273;48.464;11.926;2022-08-11T17:54:02;2.83;;;2.20;;
4521;SDS011;2273;48.464;11.926;2022-08-11T17:56:48;3.00;;;2.27;;
4521;SDS011;2273;48.464;11.926;2022-08-11T17:59:33;5.90;;;2.80;;
4521;SDS011;2273;48.464;11.926;2022-08-11T18:02:18;8.20;;;2.60;;
4521;SDS011;2273;48.464;11.926;2022-08-11T18:05:07;3.30;;;2.27;;
4521;SDS011;2273;48.464;11.926;2022-08-11T18:07:33;2.53;;;2.10;;
4521;SDS011;2273;48.464;11.926;2022-08-11T18:10:18;2.50;;;2.17;;
4521;SDS011;2273;48.464;11.926;2022-08-11T18:13:03;5.27;;;2.60;;
4521;SDS011;2273;48.464;11.926;2022-08-11T18:15:47;4.57;;;2.30;;
4521;SDS011;2273;48.464;11.926;2022-08-11T18:18:31;2.80;;;2.13;;
4521;SDS011;2273;48.464;11.926;2022-08-11T18:21:16;3.97;;;2.50;;
4521;SDS011;2273;48.464;11.926;2022-08-11T18:24:02;3.37;;;2.50;;
4521;SDS011;2273;48.464;11.926;2022-08-11T18:26:50;20.00;;;2.40;;
4521;SDS011;2273;48.464;11.926;2022-08-11T18:29:34;3.03;;;2.20;;
4521;SDS011;2273;48.464;11.926;2022-08-11T18:32:22;4.20;;;2.60;;
4521;SDS011;2273;48.464;11.926;2022-08-11T18:35:07;4.93;;;2.50;;
4521;SDS011;2273;48.464;11.926;2022-08-11T18:37:52;7.50;;;2.50;;
4521;SDS011;2273;48.464;11.926;2022-08-11T18:40:38;3.40;;;2.17;;
4521;SDS011;2273;48.464;11.926;2022-08-11T18:43:23;3.20;;;2.53;;
4521;SDS011;2273;48.464;11.926;2022-08-11T18:46:07;5.00;;;2.73;;
4521;SDS011;2273;48.464;11.926;2022-08-11T18:49:01;4.70;;;2.93;;
4521;SDS011;2273;48.464;11.926;2022-08-11T18:51:50;5.40;;;2.53;;
4521;SDS011;2273;48.464;11.926;2022-08-11T18:54:36;3.60;;;2.33;;
4521;SDS011;2273;48.464;11.926;2022-08-11T18:57:21;6.10;;;2.90;;
4521;SDS011;2273;48.464;11.926;2022-08-11T19:00:06;5.43;;;2.90;;
4521;SDS011;2273;48.464;11.926;2022-08-11T19:02:51;4.13;;;2.73;;
4521;SDS011;2273;48.464;11.926;2022-08-11T19:05:36;5.23;;;3.30;;
4521;SDS011;2273;48.464;11.926;2022-08-11T19:08:21;5.10;;;2.80;;
4521;SDS011;2273;48.464;11.926;2022-08-11T19:11:06;3.70;;;3.00;;
4521;SDS011;2273;48.464;11.926;2022-08-11T19:13:51;7.73;;;2.73;;
4521;SDS011;2273;48.464;11.926;2022-08-11T19:16:35;3.20;;;2.70;;
4521;SDS011;2273;48.464;11.926;2022-08-11T19:19:20;5.20;;;2.50;;
4521;SDS011;2273;48.464;11.926;2022-08-11T19:22:06;2.80;;;2.40;;
4521;SDS011;2273;48.464;11.926;2022-08-11T19:24:51;5.00;;;2.20;;
4521;SDS011;2273;48.464;11.926;2022-08-11T19:27:35;4.50;;;2.67;;
4521;SDS011;2273;48.464;11.926;2022-08-11T19:30:21;5.77;;;2.97;;
4521;SDS011;2273;48.464;11.926;2022-08-11T19:33:05;5.30;;;2.33;;
4521;SDS011;2273;48.464;11.926;2022-08-11T19:35:49;2.90;;;2.60;;
4521;SDS011;2273;48.464;11.926;2022-08-11T19:38:34;3.70;;;2.30;;